Time;durP1;ratioP1;P1;durP2;ratioP2;P2;SDS_P1;SDS_P2;PMS_P1;PMS_P2;Temp;Humidity;BMP_temperature;BMP_pressure;BME280_temperature;BME280_humidity;BME280_pressure;Samples;Min_cycle;Max_cycle;Signal;HPM_P1;HPM_P2
2021/08/09 00:02:13;;;;;;;25.40;23.80;;;15.30;83.50;;;;;;5033224;28;20555;-71
2021/08/09 00:04:40;;;;;;;25.77;24.07;;;15.20;83.60;;;;;;5032419;28;20551;-70
2021/08/09 00:07:08;;;;;;;23.90;22.70;;;15.20;83.70;;;;;;5036170;28;20499;-71
2021/08/09 00:09:35;;;;;;;24.73;23.33;;;15.20;83.70;;;;;;5029981;28;20459;-71
2021/08/09 00:12:02;;;;;;;24.50;23.10;;;15.20;83.80;;;;;;5030766;28;20553;-70
2021/08/09 00:14:29;;;;;;;24.63;23.10;;;15.20;83.60;;;;;;5030680;28;20511;-70
2021/08/09 00:16:57;;;;;;;24.10;22.70;;;15.10;83.80;;;;;;5033929;28;20490;-71
2021/08/09 00:19:24;;;;;;;23.60;22.30;;;15.10;83.80;;;;;;5030880;28;20479;-71
2021/08/09 00:21:52;;;;;;;24.30;23.10;;;15.00;83.80;;;;;;5031850;28;20543;-70
2021/08/09 00:24:19;;;;;;;25.10;23.83;;;15.10;83.80;;;;;;5030571;28;20456;-71
2021/08/09 00:26:46;;;;;;;26.20;24.80;;;15.00;83.90;;;;;;5038613;28;20566;-70
2021/08/09 00:29:13;;;;;;;27.97;26.27;;;15.00;84.00;;;;;;5029052;28;20463;-71
2021/08/09 00:31:39;;;;;;;24.60;23.17;;;15.10;83.60;;;;;;5029279;28;20465;-70
2021/08/09 00:34:08;;;;;;;24.30;23.10;;;15.10;83.70;;;;;;5035141;28;20472;-70
2021/08/09 00:36:35;;;;;;;24.00;22.80;;;15.10;83.60;;;;;;5030740;28;20482;-72
2021/08/09 00:39:01;;;;;;;24.00;22.60;;;15.20;83.00;;;;;;5036276;28;20470;-72
2021/08/09 00:41:28;;;;;;;24.80;23.50;;;15.10;82.80;;;;;;5030249;28;20518;-71
2021/08/09 00:43:55;;;;;;;25.67;23.37;;;15.00;83.20;;;;;;5031556;28;20534;-71
2021/08/09 00:46:23;;;;;;;24.50;23.10;;;15.00;83.50;;;;;;5036839;28;20476;-71
2021/08/09 00:48:49;;;;;;;26.00;24.33;;;15.00;83.60;;;;;;5030933;28;20826;-71
2021/08/09 00:51:18;;;;;;;24.90;23.20;;;15.00;83.60;;;;;;5029824;28;21050;-70
2021/08/09 00:53:45;;;;;;;25.50;24.10;;;15.00;83.50;;;;;;5030487;28;20476;-70
2021/08/09 00:56:12;;;;;;;24.67;23.27;;;14.90;83.50;;;;;;5025995;28;20463;-70
2021/08/09 00:58:39;;;;;;;24.20;22.90;;;15.00;83.30;;;;;;5030397;28;20833;-71
2021/08/09 01:01:06;;;;;;;24.53;23.13;;;15.00;83.10;;;;;;5031563;28;20470;-71
2021/08/09 01:03:33;;;;;;;24.90;23.50;;;15.00;83.00;;;;;;5029676;28;20539;-71
2021/08/09 01:06:00;;;;;;;24.33;23.13;;;14.90;83.20;;;;;;5032731;28;20456;-70
2021/08/09 01:08:37;;;;;;;25.67;24.27;;;14.90;83.20;;;;;;5029443;28;20464;-71
2021/08/09 01:11:11;;;;;;;24.50;23.20;;;14.90;83.20;;;;;;5036611;28;20463;-71
2021/08/09 01:13:50;;;;;;;25.60;24.10;;;15.00;83.10;;;;;;5033978;28;20473;-70
2021/08/09 01:16:18;;;;;;;25.53;24.23;;;15.00;83.10;;;;;;5029992;28;20976;-70
2021/08/09 01:18:46;;;;;;;24.70;23.30;;;14.90;82.90;;;;;;5026430;28;20542;-70
2021/08/09 01:21:14;;;;;;;25.87;24.23;;;14.80;83.10;;;;;;5030466;28;20456;-71
2021/08/09 01:23:51;;;;;;;24.87;23.57;;;14.80;83.30;;;;;;5037794;28;20459;-71
2021/08/09 01:26:25;;;;;;;24.30;23.13;;;14.80;83.50;;;;;;5027985;28;20547;-70
2021/08/09 01:28:56;;;;;;;25.60;23.90;;;14.80;83.40;;;;;;5029014;28;20464;-71
2021/08/09 01:31:28;;;;;;;24.77;23.47;;;14.80;83.40;;;;;;5029437;28;20459;-71
2021/08/09 01:33:56;;;;;;;24.43;23.23;;;14.80;83.00;;;;;;5030865;28;20486;-71
2021/08/09 01:36:23;;;;;;;23.77;22.33;;;14.80;83.30;;;;;;5032236;28;20479;-71
2021/08/09 01:38:52;;;;;;;24.47;22.97;;;14.80;83.10;;;;;;5029734;28;21071;-71
2021/08/09 01:41:19;;;;;;;24.27;22.87;;;14.80;83.40;;;;;;5035186;28;20462;-71
2021/08/09 01:43:46;;;;;;;24.53;23.33;;;14.80;83.30;;;;;;5030857;28;20456;-71
2021/08/09 01:46:15;;;;;;;24.27;22.97;;;14.80;83.30;;;;;;5024771;28;20468;-70
2021/08/09 01:48:46;;;;;;;24.40;23.10;;;14.80;83.00;;;;;;5029093;28;20460;-70
2021/08/09 01:51:13;;;;;;;23.60;22.40;;;14.80;83.10;;;;;;5037850;28;20455;-71
2021/08/09 01:53:41;;;;;;;23.07;21.87;;;14.80;83.00;;;;;;5028246;28;20479;-70
2021/08/09 01:56:09;;;;;;;23.43;22.23;;;14.80;83.20;;;;;;5028813;28;20452;-71
2021/08/09 01:58:36;;;;;;;24.57;23.17;;;14.70;83.20;;;;;;5041541;28;20466;-71
2021/08/09 02:01:03;;;;;;;24.03;22.40;;;14.70;83.30;;;;;;5031978;28;20937;-71
2021/08/09 02:03:31;;;;;;;23.30;22.10;;;14.70;83.40;;;;;;5031742;28;20566;-71
2021/08/09 02:05:58;;;;;;;23.63;22.23;;;14.70;83.40;;;;;;5028963;28;20547;-71
2021/08/09 02:08:25;;;;;;;23.23;22.03;;;14.60;83.50;;;;;;5038498;28;20983;-70
2021/08/09 02:10:58;;;;;;;23.80;22.50;;;14.60;83.60;;;;;;5027012;28;20795;-71
2021/08/09 02:13:28;;;;;;;23.17;21.97;;;14.60;83.50;;;;;;5034679;28;20476;-71
2021/08/09 02:15:59;;;;;;;23.30;21.80;;;14.60;83.70;;;;;;5027457;28;20757;-71
2021/08/09 02:18:32;;;;;;;22.73;21.37;;;14.50;83.70;;;;;;5037314;28;20460;-71
2021/08/09 02:21:03;;;;;;;22.60;21.43;;;14.60;83.50;;;;;;5029609;28;20491;-71
2021/08/09 02:23:39;;;;;;;23.13;21.83;;;14.60;83.50;;;;;;5027930;28;20470;-71
2021/08/09 02:26:07;;;;;;;24.80;23.50;;;14.60;83.40;;;;;;5037694;28;21000;-70
2021/08/09 02:28:35;;;;;;;23.10;21.80;;;14.60;83.30;;;;;;5027096;28;20452;-71
2021/08/09 02:31:06;;;;;;;22.27;21.00;;;14.50;83.40;;;;;;5038881;28;20451;-71
2021/08/09 02:33:35;;;;;;;24.50;23.10;;;14.50;83.60;;;;;;5027699;28;20487;-71
2021/08/09 02:36:04;;;;;;;23.20;21.70;;;14.50;83.50;;;;;;5029541;28;20460;-71
2021/08/09 02:38:32;;;;;;;23.20;21.90;;;14.50;83.60;;;;;;5035783;28;20599;-70
2021/08/09 02:41:00;;;;;;;23.60;22.40;;;14.50;83.50;;;;;;5029523;28;20462;-71
2021/08/09 02:43:28;;;;;;;23.50;22.30;;;14.50;83.40;;;;;;5028513;28;21255;-70
2021/08/09 02:45:57;;;;;;;23.30;21.87;;;14.50;83.30;;;;;;5028507;28;20510;-71
2021/08/09 02:48:25;;;;;;;22.97;21.83;;;14.50;83.20;;;;;;5025784;28;20484;-71
2021/08/09 02:50:54;;;;;;;24.00;22.70;;;14.50;83.60;;;;;;5029187;28;20452;-72
2021/08/09 02:53:23;;;;;;;23.57;22.37;;;14.50;84.20;;;;;;5029523;28;20455;-72
2021/08/09 02:55:53;;;;;;;23.53;22.33;;;14.40;84.00;;;;;;5029259;28;20543;-72
2021/08/09 02:58:20;;;;;;;23.10;21.90;;;14.50;83.90;;;;;;5035734;28;20471;-72
2021/08/09 03:00:48;;;;;;;26.73;25.20;;;14.50;83.60;;;;;;5036211;28;20448;-72
2021/08/09 03:03:19;;;;;;;23.10;21.90;;;14.40;84.00;;;;;;5028134;28;20460;-73
2021/08/09 03:05:46;;;;;;;25.70;24.20;;;14.40;84.10;;;;;;5027844;28;20464;-72
2021/08/09 03:08:16;;;;;;;25.17;23.27;;;14.40;84.00;;;;;;5027952;28;20518;-72
2021/08/09 03:10:43;;;;;;;23.60;22.20;;;14.40;83.90;;;;;;5031428;28;20451;-73
2021/08/09 03:13:11;;;;;;;26.60;25.03;;;14.40;84.10;;;;;;5018573;28;20456;-72
2021/08/09 03:15:41;;;;;;;24.53;23.00;;;14.40;84.00;;;;;;5027826;28;20479;-72
2021/08/09 03:18:08;;;;;;;22.83;21.63;;;14.30;84.20;;;;;;5027458;28;20483;-72
2021/08/09 03:20:35;;;;;;;26.97;25.40;;;14.30;84.10;;;;;;5031212;28;20535;-72
2021/08/09 03:23:02;;;;;;;23.23;21.77;;;14.30;84.20;;;;;;5031494;28;20460;-73
2021/08/09 03:25:30;;;;;;;28.07;26.57;;;14.40;84.00;;;;;;5032912;28;20768;-72
2021/08/09 03:27:58;;;;;;;23.47;22.27;;;14.30;84.30;;;;;;5026311;28;21099;-72
2021/08/09 03:30:26;;;;;;;23.87;22.50;;;14.30;84.30;;;;;;5029528;28;21062;-72
2021/08/09 03:32:53;;;;;;;24.47;22.90;;;14.30;84.30;;;;;;5029457;28;20539;-72
2021/08/09 03:35:20;;;;;;;24.03;22.73;;;14.30;84.50;;;;;;5026775;28;20480;-72
2021/08/09 03:37:47;;;;;;;26.20;24.60;;;14.30;84.50;;;;;;5024905;28;20562;-73
2021/08/09 03:40:15;;;;;;;25.77;24.27;;;14.20;84.80;;;;;;5031202;28;20465;-72
2021/08/09 03:42:43;;;;;;;25.13;23.73;;;14.30;84.70;;;;;;5027509;28;20468;-72
2021/08/09 03:45:11;;;;;;;22.73;21.33;;;14.30;84.30;;;;;;5032605;28;20452;-72
2021/08/09 03:47:37;;;;;;;26.97;25.43;;;14.30;84.60;;;;;;5027079;28;20819;-72
2021/08/09 03:50:05;;;;;;;25.13;23.73;;;14.30;84.60;;;;;;5030010;28;20480;-72
2021/08/09 03:52:32;;;;;;;22.70;21.50;;;14.30;84.70;;;;;;5029096;28;20452;-72
2021/08/09 03:54:59;;;;;;;27.50;26.00;;;14.30;84.40;;;;;;5029815;28;20486;-72
2021/08/09 03:57:27;;;;;;;24.50;23.00;;;14.30;84.80;;;;;;5029650;28;20476;-72
2021/08/09 03:59:55;;;;;;;24.50;23.10;;;14.30;84.70;;;;;;5031037;28;20464;-72
2021/08/09 04:02:29;;;;;;;25.97;24.27;;;14.30;84.80;;;;;;5031169;28;20564;-72
2021/08/09 04:04:57;;;;;;;24.20;22.73;;;14.30;85.00;;;;;;5025994;28;20917;-72
2021/08/09 04:07:25;;;;;;;27.67;25.90;;;14.30;85.20;;;;;;5027951;28;21100;-73
2021/08/09 04:09:52;;;;;;;27.27;25.60;;;14.30;85.30;;;;;;5028311;28;20460;-72
2021/08/09 04:12:19;;;;;;;27.87;26.27;;;14.30;85.00;;;;;;5029774;28;20543;-72
2021/08/09 04:14:46;;;;;;;24.90;23.30;;;14.30;85.00;;;;;;5025569;28;20566;-72
2021/08/09 04:17:14;;;;;;;28.30;26.70;;;14.30;84.90;;;;;;5026562;28;20490;-72
2021/08/09 04:19:41;;;;;;;27.67;26.07;;;14.40;84.70;;;;;;5024832;28;20460;-72
2021/08/09 04:22:08;;;;;;;24.50;23.10;;;14.40;84.30;;;;;;5027443;28;20567;-72
2021/08/09 04:24:35;;;;;;;30.03;28.23;;;14.30;84.70;;;;;;5027217;28;20527;-71
2021/08/09 04:27:02;;;;;;;27.97;26.27;;;14.30;85.00;;;;;;5031819;28;20823;-70
2021/08/09 04:29:29;;;;;;;26.00;24.40;;;14.40;84.80;;;;;;5026122;28;20819;-70
2021/08/09 04:31:56;;;;;;;24.40;23.00;;;14.50;84.60;;;;;;5035505;28;20280;-70
2021/08/09 04:34:24;;;;;;;29.97;28.13;;;14.50;84.30;;;;;;5028759;28;20479;-70
2021/08/09 04:36:51;;;;;;;25.60;24.20;;;14.50;83.90;;;;;;5028127;28;20986;-71
2021/08/09 04:39:18;;;;;;;29.37;27.57;;;14.60;83.70;;;;;;5026997;28;20464;-71
2021/08/09 04:41:45;;;;;;;25.70;24.03;;;14.60;83.90;;;;;;5028795;28;21053;-71
2021/08/09 04:44:13;;;;;;;27.40;25.90;;;14.60;83.70;;;;;;5025937;28;20815;-71
2021/08/09 04:46:40;;;;;;;28.33;26.60;;;14.70;83.70;;;;;;5024750;28;20476;-73
2021/08/09 04:49:07;;;;;;;25.10;23.70;;;14.70;83.40;;;;;;5022988;28;20550;-70
2021/08/09 04:51:35;;;;;;;27.70;26.13;;;14.80;82.90;;;;;;5029051;28;20535;-73
2021/08/09 04:54:03;;;;;;;24.97;23.57;;;14.90;82.90;;;;;;5030061;28;20567;-74
2021/08/09 04:56:30;;;;;;;27.87;26.27;;;15.00;82.70;;;;;;5031155;28;20861;-74
2021/08/09 04:58:57;;;;;;;26.43;24.83;;;15.00;82.60;;;;;;5031293;28;20550;-71
2021/08/09 05:01:24;;;;;;;27.77;26.17;;;15.10;82.20;;;;;;5029838;28;20486;-73
2021/08/09 05:03:51;;;;;;;28.23;26.42;;;15.20;82.00;;;;;;5030654;28;20932;-73
2021/08/09 05:06:18;;;;;;;26.53;25.00;;;15.20;81.80;;;;;;5031849;28;20193;-71
2021/08/09 05:08:46;;;;;;;26.70;24.73;;;15.30;81.40;;;;;;5031157;28;20869;-70
2021/08/09 05:11:13;;;;;;;26.43;24.80;;;15.30;81.30;;;;;;5032120;28;20648;-71
2021/08/09 05:13:41;;;;;;;28.63;27.17;;;15.40;81.40;;;;;;5030061;28;20480;-73
2021/08/09 05:16:08;;;;;;;25.43;23.97;;;15.40;81.30;;;;;;5030476;28;20997;-70
2021/08/09 05:18:35;;;;;;;27.23;25.40;;;15.50;80.90;;;;;;5035596;28;20456;-72
2021/08/09 05:21:02;;;;;;;28.90;27.10;;;15.60;80.30;;;;;;5029686;28;20872;-73
2021/08/09 05:23:29;;;;;;;25.60;24.00;;;15.60;80.20;;;;;;5029982;28;21159;-72
2021/08/09 05:25:58;;;;;;;25.07;23.60;;;15.60;80.50;;;;;;5033840;28;21055;-72
2021/08/09 05:28:24;;;;;;;24.40;23.10;;;15.60;80.50;;;;;;5039844;28;20566;-73
2021/08/09 05:30:51;;;;;;;25.67;24.27;;;15.70;80.20;;;;;;5030806;28;20551;-74
2021/08/09 05:33:18;;;;;;;27.10;25.47;;;15.80;80.30;;;;;;5036546;28;20472;-73
2021/08/09 05:35:45;;;;;;;27.20;25.70;;;15.80;80.00;;;;;;5038429;28;20478;-73
2021/08/09 05:38:12;;;;;;;24.30;23.00;;;15.90;79.80;;;;;;5027666;28;20529;-73
2021/08/09 05:40:39;;;;;;;26.73;25.00;;;16.00;79.80;;;;;;5039280;28;20544;-73
2021/08/09 05:43:07;;;;;;;26.13;24.77;;;16.10;79.30;;;;;;5033949;28;20555;-73
2021/08/09 05:45:34;;;;;;;28.00;26.50;;;16.10;78.90;;;;;;5042274;28;20448;-73
2021/08/09 05:48:01;;;;;;;25.60;24.13;;;16.10;78.90;;;;;;5034679;28;20489;-73
2021/08/09 05:50:28;;;;;;;28.63;26.93;;;16.00;78.90;;;;;;5030402;28;20495;-72
2021/08/09 05:52:55;;;;;;;28.13;26.40;;;16.00;79.00;;;;;;5028607;28;20467;-71
2021/08/09 05:55:23;;;;;;;25.97;24.47;;;16.10;78.60;;;;;;5029697;28;20570;-70
2021/08/09 05:57:52;;;;;;;26.87;25.20;;;16.30;77.90;;;;;;5029368;28;20475;-70
2021/08/09 06:00:20;;;;;;;25.07;23.67;;;16.40;77.80;;;;;;5020305;28;20491;-70
2021/08/09 06:02:47;;;;;;;27.27;25.33;;;16.50;77.50;;;;;;5027055;28;20852;-71
2021/08/09 06:05:15;;;;;;;28.70;27.00;;;16.50;77.40;;;;;;5028803;28;20467;-72
2021/08/09 06:07:43;;;;;;;24.70;23.40;;;16.60;77.00;;;;;;5029773;28;21009;-71
2021/08/09 06:10:11;;;;;;;27.13;25.40;;;16.60;76.40;;;;;;5030293;28;20460;-72
2021/08/09 06:12:38;;;;;;;26.47;24.97;;;16.70;76.10;;;;;;5028566;28;20463;-71
2021/08/09 06:15:05;;;;;;;27.10;25.70;;;16.90;75.80;;;;;;5028606;28;20507;-72
2021/08/09 06:17:34;;;;;;;25.80;24.40;;;16.90;75.60;;;;;;5028529;28;20486;-72
2021/08/09 06:20:01;;;;;;;27.30;25.80;;;17.10;75.20;;;;;;5041529;28;20567;-72
2021/08/09 06:22:28;;;;;;;26.63;24.90;;;17.20;75.00;;;;;;5035356;28;20468;-72
2021/08/09 06:24:55;;;;;;;26.27;24.73;;;17.30;74.40;;;;;;5037483;28;20920;-72
2021/08/09 06:27:22;;;;;;;27.40;25.70;;;17.50;73.60;;;;;;5043626;28;20474;-72
2021/08/09 06:29:50;;;;;;;27.37;25.87;;;17.60;73.20;;;;;;5038950;28;20466;-72
2021/08/09 06:32:16;;;;;;;27.57;25.50;;;17.70;72.90;;;;;;5035771;28;20479;-73
2021/08/09 06:34:45;;;;;;;30.37;28.67;;;17.80;72.50;;;;;;5040465;28;20450;-73
2021/08/09 06:37:12;;;;;;;28.23;26.53;;;17.90;71.80;;;;;;5039112;28;20471;-73
2021/08/09 06:39:38;;;;;;;26.70;25.10;;;17.90;71.80;;;;;;5040243;28;20473;-73
2021/08/09 06:42:06;;;;;;;27.03;25.50;;;18.00;72.20;;;;;;5046496;28;20461;-74
2021/08/09 06:44:33;;;;;;;28.70;27.10;;;18.00;71.80;;;;;;5036006;28;20471;-72
2021/08/09 06:47:01;;;;;;;27.83;26.33;;;18.20;71.60;;;;;;5037639;28;20569;-73
2021/08/09 06:49:28;;;;;;;27.80;26.27;;;18.20;71.30;;;;;;5033504;28;20905;-73
2021/08/09 06:51:57;;;;;;;28.07;26.10;;;18.30;71.00;;;;;;5038503;28;20953;-73
2021/08/09 06:54:25;;;;;;;26.03;24.63;;;18.50;70.40;;;;;;5032905;28;20478;-72
2021/08/09 06:56:52;;;;;;;27.00;25.20;;;18.60;70.30;;;;;;5027845;28;20884;-72
2021/08/09 06:59:19;;;;;;;29.03;27.33;;;18.60;69.90;;;;;;5030170;28;20555;-74
2021/08/09 07:01:47;;;;;;;27.50;26.00;;;18.70;69.90;;;;;;5041730;28;20538;-75
2021/08/09 07:04:14;;;;;;;27.07;25.60;;;18.80;69.60;;;;;;5032670;28;20459;-72
2021/08/09 07:06:41;;;;;;;26.53;25.13;;;18.90;69.50;;;;;;5029714;28;20568;-72
2021/08/09 07:09:09;;;;;;;27.03;25.53;;;19.00;69.10;;;;;;5034782;28;21048;-72
2021/08/09 07:11:38;;;;;;;29.83;28.13;;;19.20;68.90;;;;;;5041980;28;20491;-70
2021/08/09 07:14:05;;;;;;;29.43;27.67;;;19.20;68.90;;;;;;5030568;28;21041;-72
2021/08/09 07:16:32;;;;;;;28.03;26.33;;;19.30;68.50;;;;;;5028592;28;20900;-72
2021/08/09 07:18:59;;;;;;;29.47;27.87;;;19.30;68.50;;;;;;5027617;28;20610;-72
2021/08/09 07:21:25;;;;;;;27.33;25.83;;;19.50;68.10;;;;;;5027747;28;20456;-72
2021/08/09 07:23:52;;;;;;;28.23;26.53;;;19.60;67.80;;;;;;5027401;28;20483;-72
2021/08/09 07:26:21;;;;;;;27.67;26.17;;;19.70;67.70;;;;;;5020608;28;20453;-71
2021/08/09 07:28:48;;;;;;;27.20;25.70;;;19.80;67.40;;;;;;5031949;28;20544;-72
2021/08/09 07:31:15;;;;;;;29.53;27.83;;;19.90;67.00;;;;;;5035314;28;20454;-72
2021/08/09 07:33:42;;;;;;;29.93;28.03;;;20.00;66.40;;;;;;5026740;28;20570;-72
2021/08/09 07:36:08;;;;;;;30.37;28.60;;;20.20;66.20;;;;;;5018163;28;20975;-72
2021/08/09 07:38:35;;;;;;;28.00;26.37;;;20.30;65.90;;;;;;5026606;28;20941;-72
2021/08/09 07:41:02;;;;;;;27.33;25.83;;;20.40;65.70;;;;;;5024939;28;20545;-72
2021/08/09 07:43:32;;;;;;;26.53;25.03;;;20.40;65.70;;;;;;5029293;28;20463;-72
2021/08/09 07:45:59;;;;;;;28.97;27.47;;;20.40;65.30;;;;;;5034216;28;20448;-73
2021/08/09 07:48:26;;;;;;;28.30;26.80;;;20.50;65.20;;;;;;5026309;28;20514;-73
2021/08/09 07:50:53;;;;;;;27.20;25.50;;;20.50;65.20;;;;;;5026182;28;20458;-72
2021/08/09 07:53:20;;;;;;;27.00;25.50;;;20.50;64.90;;;;;;5037867;28;20538;-73
2021/08/09 07:55:47;;;;;;;25.70;24.30;;;20.60;64.80;;;;;;5035096;28;20490;-73
2021/08/09 07:58:14;;;;;;;25.83;24.33;;;20.70;64.20;;;;;;5038769;28;20479;-72
2021/08/09 08:00:42;;;;;;;28.83;27.23;;;20.70;64.40;;;;;;5036995;28;20465;-72
2021/08/09 08:03:10;;;;;;;30.00;28.10;;;20.80;64.30;;;;;;5040866;28;20471;-72
2021/08/09 08:05:37;;;;;;;30.37;28.37;;;20.90;63.90;;;;;;5040844;28;20461;-72
2021/08/09 08:08:06;;;;;;;26.63;25.23;;;21.00;63.50;;;;;;5028439;28;21758;-72
2021/08/09 08:10:33;;;;;;;25.60;24.20;;;21.10;63.30;;;;;;5033575;28;20927;-74
2021/08/09 08:12:59;;;;;;;27.93;26.33;;;21.20;63.10;;;;;;5030629;28;20491;-74
2021/08/09 08:15:26;;;;;;;27.73;26.03;;;21.20;62.50;;;;;;5038362;28;20485;-74
2021/08/09 08:17:55;;;;;;;27.97;26.37;;;21.30;62.80;;;;;;5026522;28;20488;-73
2021/08/09 08:20:22;;;;;;;28.60;27.10;;;21.30;62.60;;;;;;5020556;28;20531;-73
2021/08/09 08:22:49;;;;;;;26.20;24.50;;;21.30;61.40;;;;;;5028905;28;20456;-73
2021/08/09 08:25:16;;;;;;;28.50;27.00;;;21.30;61.40;;;;;;5032950;28;20446;-72
2021/08/09 08:27:43;;;;;;;27.50;25.90;;;21.40;61.70;;;;;;5031564;28;20896;-71
2021/08/09 08:30:10;;;;;;;28.93;27.30;;;21.50;61.60;;;;;;5036305;28;20448;-72
2021/08/09 08:32:37;;;;;;;28.57;26.93;;;21.60;61.70;;;;;;5032574;28;20460;-72
2021/08/09 08:35:06;;;;;;;29.97;28.47;;;21.70;60.30;;;;;;5035830;28;20976;-73
2021/08/09 08:37:32;;;;;;;28.40;26.80;;;21.80;59.90;;;;;;5037730;28;20474;-74
2021/08/09 08:39:59;;;;;;;27.90;26.30;;;21.80;59.00;;;;;;5041266;28;20460;-74
2021/08/09 08:42:26;;;;;;;26.93;25.20;;;21.90;58.40;;;;;;5040976;28;20543;-73
2021/08/09 08:44:53;;;;;;;27.43;25.93;;;22.00;58.40;;;;;;5037364;28;20987;-74
2021/08/09 08:47:21;;;;;;;28.67;27.07;;;22.10;58.20;;;;;;5027191;28;20483;-73
2021/08/09 08:49:48;;;;;;;27.67;26.07;;;22.20;57.80;;;;;;5036840;28;21007;-73
2021/08/09 08:52:17;;;;;;;26.30;24.70;;;22.30;57.80;;;;;;5037425;28;20462;-70
2021/08/09 08:54:45;;;;;;;27.73;26.33;;;22.30;57.40;;;;;;5037923;28;20464;-71
2021/08/09 08:57:20;;;;;;;28.23;26.63;;;22.40;57.40;;;;;;5038944;28;20507;-71
2021/08/09 08:59:47;;;;;;;27.93;26.23;;;22.40;57.60;;;;;;5038768;28;20494;-72
2021/08/09 09:02:34;;;;;;;27.90;26.30;;;22.50;57.10;;;;;;5037061;28;20955;-71
2021/08/09 09:05:13;;;;;;;27.93;26.33;;;22.50;57.00;;;;;;5042321;28;20447;-73
2021/08/09 09:07:43;;;;;;;29.73;27.27;;;22.60;56.80;;;;;;5036724;28;20979;-73
2021/08/09 09:10:17;;;;;;;26.87;25.37;;;22.70;56.20;;;;;;5032583;28;20462;-73
2021/08/09 09:12:45;;;;;;;27.97;26.47;;;22.80;56.40;;;;;;5030032;28;20464;-73
2021/08/09 09:15:12;;;;;;;32.70;29.77;;;22.90;56.20;;;;;;5034674;28;20482;-73
2021/08/09 09:17:41;;;;;;;30.23;28.03;;;23.00;56.30;;;;;;5029110;28;20493;-73
2021/08/09 09:20:27;;;;;;;28.40;26.80;;;23.10;55.60;;;;;;5034997;28;20463;-73
2021/08/09 09:23:12;;;;;;;28.77;27.17;;;23.30;54.30;;;;;;5044233;28;20539;-73
2021/08/09 09:25:39;;;;;;;32.00;29.03;;;23.50;53.70;;;;;;5035990;28;20455;-73
2021/08/09 09:28:22;;;;;;;30.40;27.97;;;23.60;53.50;;;;;;5030431;28;20865;-73
2021/08/09 09:30:49;;;;;;;27.30;25.60;;;23.90;53.20;;;;;;5040368;28;20455;-73
2021/08/09 09:33:16;;;;;;;29.90;27.20;;;23.90;53.20;;;;;;5029602;28;20876;-73
2021/08/09 09:35:43;;;;;;;29.83;28.23;;;24.00;52.80;;;;;;5029296;28;20460;-73
2021/08/09 09:38:11;;;;;;;28.47;26.50;;;24.20;52.70;;;;;;5029967;28;20591;-73
2021/08/09 09:40:42;;;;;;;26.90;25.27;;;24.30;52.60;;;;;;5038151;28;20913;-73
2021/08/09 09:43:17;;;;;;;52.13;47.30;;;24.30;52.40;;;;;;5030260;28;20471;-76
2021/08/09 09:45:53;;;;;;;32.03;29.50;;;24.30;51.80;;;;;;5038474;28;20516;-76
2021/08/09 09:48:34;;;;;;;32.27;29.43;;;24.30;52.20;;;;;;5018090;28;20474;-74
2021/08/09 09:51:11;;;;;;;29.33;27.50;;;24.30;52.10;;;;;;5027243;28;20842;-74
2021/08/09 09:53:40;;;;;;;29.20;27.40;;;24.30;51.80;;;;;;5025831;28;20491;-73
2021/08/09 09:56:08;;;;;;;27.43;25.40;;;24.20;52.30;;;;;;5032817;28;20982;-75
2021/08/09 09:58:36;;;;;;;28.57;26.23;;;24.30;52.00;;;;;;5031820;28;20585;-78
2021/08/09 10:01:04;;;;;;;26.20;24.70;;;24.30;51.70;;;;;;5034269;28;20451;-75
2021/08/09 10:03:32;;;;;;;28.47;26.77;;;24.30;51.40;;;;;;5040332;28;20452;-75
2021/08/09 10:06:00;;;;;;;26.30;24.80;;;24.30;51.70;;;;;;5037030;28;20466;-71
2021/08/09 10:08:30;;;;;;;28.13;26.50;;;24.40;51.40;;;;;;5038193;28;20460;-73
2021/08/09 10:11:01;;;;;;;29.53;27.97;;;24.50;50.90;;;;;;5023682;28;20467;-72
2021/08/09 10:13:31;;;;;;;26.73;25.17;;;24.60;51.40;;;;;;5014858;28;20473;-72
2021/08/09 10:16:01;;;;;;;29.00;27.50;;;24.70;51.00;;;;;;5024891;28;20458;-72
2021/08/09 10:18:30;;;;;;;27.00;25.50;;;24.70;51.40;;;;;;5027790;28;20463;-72
2021/08/09 10:20:59;;;;;;;28.57;26.97;;;24.50;50.90;;;;;;5028041;28;20461;-73
2021/08/09 10:23:38;;;;;;;28.73;26.83;;;24.20;51.40;;;;;;5028717;28;20460;-72
2021/08/09 10:26:07;;;;;;;26.23;24.80;;;24.10;52.50;;;;;;5025880;28;20474;-71
2021/08/09 10:29:03;;;;;;;27.37;25.80;;;24.20;52.60;;;;;;5032126;28;20477;-73
2021/08/09 10:31:31;;;;;;;27.23;25.60;;;24.50;52.50;;;;;;5020323;28;20551;-76
2021/08/09 10:33:59;;;;;;;29.80;28.10;;;24.80;52.60;;;;;;5028264;28;20942;-74
2021/08/09 10:36:27;;;;;;;27.83;26.03;;;25.00;52.00;;;;;;5031491;28;20480;-74
2021/08/09 10:38:55;;;;;;;26.90;25.40;;;25.10;52.30;;;;;;5040575;28;20490;-74
2021/08/09 10:41:38;;;;;;;27.33;25.70;;;25.30;52.00;;;;;;5029605;28;20452;-74
2021/08/09 10:44:22;;;;;;;28.43;26.73;;;25.40;51.90;;;;;;5023811;28;20962;-73
2021/08/09 10:46:50;;;;;;;28.63;26.83;;;25.50;50.70;;;;;;5028528;28;20826;-74
2021/08/09 10:49:56;;;;;;;29.63;27.90;;;25.50;50.90;;;;;;5029906;28;20870;-73
2021/08/09 10:52:50;;;;;;;27.97;26.47;;;25.70;50.80;;;;;;5037466;28;20910;-73
2021/08/09 10:55:45;;;;;;;27.70;26.40;;;25.40;50.00;;;;;;5023074;28;20972;-74
2021/08/09 10:58:41;;;;;;;28.00;26.40;;;25.40;49.80;;;;;;5030136;28;20507;-75
2021/08/09 11:01:10;;;;;;;29.50;27.73;;;25.60;49.60;;;;;;5019127;28;20533;-74
2021/08/09 11:04:13;;;;;;;29.17;27.90;;;25.70;50.00;;;;;;5033829;28;20459;-74
2021/08/09 11:06:41;;;;;;;30.13;28.43;;;25.70;49.90;;;;;;5017101;28;20584;-74
2021/08/09 11:09:46;;;;;;;28.57;26.87;;;25.70;50.10;;;;;;5025429;28;20456;-75
2021/08/09 11:12:22;;;;;;;29.70;27.90;;;25.90;50.80;;;;;;5021289;28;20471;-74
2021/08/09 11:15:22;;;;;;;26.37;24.87;;;26.00;49.60;;;;;;5025473;28;20498;-74
2021/08/09 11:17:58;;;;;;;29.60;27.43;;;25.80;49.20;;;;;;5023352;28;20563;-74
2021/08/09 11:20:32;;;;;;;27.63;26.10;;;25.70;48.40;;;;;;5026758;28;20491;-74
2021/08/09 11:23:08;;;;;;;28.70;26.50;;;25.70;49.40;;;;;;5025492;28;20466;-74
2021/08/09 11:25:38;;;;;;;29.20;27.60;;;25.60;49.80;;;;;;5027310;28;20951;-73
2021/08/09 11:28:08;;;;;;;28.87;26.93;;;25.10;50.70;;;;;;5026287;28;20483;-73
2021/08/09 11:30:38;;;;;;;28.20;26.60;;;24.80;51.70;;;;;;5041030;28;20877;-74
2021/08/09 11:33:08;;;;;;;29.20;27.50;;;24.80;51.90;;;;;;5028927;28;20538;-74
2021/08/09 11:35:45;;;;;;;30.03;28.27;;;24.80;50.80;;;;;;5029099;28;20456;-75
2021/08/09 11:38:12;;;;;;;29.77;27.17;;;24.70;52.40;;;;;;5042143;28;20485;-75
2021/08/09 11:40:44;;;;;;;28.07;26.50;;;24.90;50.90;;;;;;5037159;28;20553;-75
2021/08/09 11:43:13;;;;;;;29.00;27.40;;;25.00;50.90;;;;;;5025587;28;20495;-75
2021/08/09 11:45:40;;;;;;;30.50;28.63;;;25.10;49.40;;;;;;5038924;28;20481;-75
2021/08/09 11:48:11;;;;;;;30.07;28.27;;;25.20;49.50;;;;;;5029521;28;20480;-76
2021/08/09 11:50:40;;;;;;;26.83;25.33;;;25.20;49.40;;;;;;5021252;28;20452;-74
2021/08/09 11:53:08;;;;;;;29.40;27.80;;;25.00;49.20;;;;;;5032284;28;20469;-75
2021/08/09 11:55:36;;;;;;;28.07;26.47;;;24.90;49.40;;;;;;5033743;28;20456;-75
2021/08/09 11:58:03;;;;;;;27.67;26.17;;;25.00;50.00;;;;;;5026617;28;21274;-75
2021/08/09 12:00:41;;;;;;;29.67;27.80;;;25.30;50.00;;;;;;5031826;28;20997;-75
2021/08/09 12:03:18;;;;;;;31.00;29.20;;;25.70;49.00;;;;;;5031342;28;20466;-75
2021/08/09 12:05:45;;;;;;;30.03;28.43;;;26.00;48.00;;;;;;5032828;28;20534;-75
2021/08/09 12:08:13;;;;;;;29.50;27.80;;;25.90;47.00;;;;;;5030216;28;20486;-75
2021/08/09 12:10:43;;;;;;;28.33;26.57;;;26.00;47.60;;;;;;5033734;28;20491;-75
2021/08/09 12:13:24;;;;;;;29.97;27.97;;;26.10;47.60;;;;;;5028721;28;20554;-76
2021/08/09 12:16:12;;;;;;;30.00;28.20;;;26.40;46.90;;;;;;5029933;28;20454;-74
2021/08/09 12:18:53;;;;;;;30.07;28.33;;;26.50;46.70;;;;;;5027355;28;20487;-75
2021/08/09 12:21:21;;;;;;;29.03;27.10;;;26.60;46.70;;;;;;5032025;28;20956;-75
2021/08/09 12:23:56;;;;;;;30.07;28.37;;;26.60;47.30;;;;;;5030262;28;20484;-75
2021/08/09 12:26:29;;;;;;;27.63;26.03;;;26.70;46.60;;;;;;5032029;28;20485;-75
2021/08/09 12:28:58;;;;;;;27.90;26.20;;;26.90;45.30;;;;;;5030092;28;20455;-75
2021/08/09 12:31:45;;;;;;;28.67;26.70;;;27.00;45.10;;;;;;5031593;28;20448;-75
2021/08/09 12:34:15;;;;;;;29.10;27.40;;;26.90;43.80;;;;;;5026710;28;20452;-74
2021/08/09 12:36:42;;;;;;;28.83;27.03;;;26.70;44.60;;;;;;5026112;28;20486;-74
2021/08/09 12:39:12;;;;;;;30.73;29.00;;;26.60;45.10;;;;;;5029602;28;20452;-75
2021/08/09 12:41:39;;;;;;;30.40;27.80;;;26.60;44.30;;;;;;5029903;28;20551;-75